createdAt,value
2023-07-07T00:00:26.009Z,96466.22
2023-07-07T00:02:53.080Z,96471.31
2023-07-07T00:05:21.036Z,96474.88
2023-07-07T00:07:49.832Z,96466.91
2023-07-07T00:10:17.154Z,96475.56
2023-07-07T00:12:44.834Z,96471.56
2023-07-07T00:15:12.150Z,96475.94
2023-07-07T00:17:43.138Z,96475.94
2023-07-07T00:20:12.169Z,96475.53
2023-07-07T00:22:39.048Z,96472.38
2023-07-07T00:25:07.316Z,96477.53
2023-07-07T00:27:34.689Z,96477.06
2023-07-07T00:30:01.740Z,96479.34
2023-07-07T00:32:31.377Z,96480.84
2023-07-07T00:34:58.074Z,96478.44
2023-07-07T00:37:24.829Z,96479.59
2023-07-07T00:39:51.770Z,96484.69
2023-07-07T00:42:18.630Z,96482.00
2023-07-07T00:45:04.226Z,96490.16
2023-07-07T00:47:31.413Z,96488.84
2023-07-07T00:49:58.431Z,96499.91
2023-07-07T00:52:25.599Z,96489.56
2023-07-07T00:54:52.600Z,96491.94
2023-07-07T00:57:19.621Z,96497.84
2023-07-07T00:59:48.445Z,96491.13
2023-07-07T01:02:26.847Z,96503.47
2023-07-07T01:05:01.016Z,96499.16
2023-07-07T01:07:32.523Z,96501.13
2023-07-07T01:09:59.273Z,96507.47
2023-07-07T01:12:25.959Z,96510.63
2023-07-07T01:14:53.142Z,96505.84
2023-07-07T01:17:58.186Z,96504.31
2023-07-07T01:20:42.808Z,96508.34
2023-07-07T01:23:28.033Z,96510.72
2023-07-07T01:26:04.034Z,96506.78
2023-07-07T01:28:46.589Z,96504.84
2023-07-07T01:31:25.015Z,96505.72
2023-07-07T01:33:52.216Z,96506.09
2023-07-07T01:36:19.662Z,96508.50
2023-07-07T01:38:48.123Z,96514.88
2023-07-07T01:41:39.414Z,96519.22
2023-07-07T01:44:21.007Z,96509.28
2023-07-07T01:47:10.847Z,96512.41
2023-07-07T01:49:57.840Z,96518.34
2023-07-07T01:52:31.584Z,96509.97
2023-07-07T01:55:22.961Z,96510.34
2023-07-07T01:57:56.595Z,96516.59
2023-07-07T02:00:25.081Z,96512.25
2023-07-07T02:02:53.043Z,96517.78
2023-07-07T02:05:20.125Z,96520.56
2023-07-07T02:07:46.980Z,96519.38
2023-07-07T02:10:13.894Z,96524.50
2023-07-07T02:12:41.609Z,96520.19
2023-07-07T02:15:09.184Z,96539.22
2023-07-07T02:17:36.243Z,96528.13
2023-07-07T02:20:04.787Z,96527.31
2023-07-07T02:22:31.559Z,96526.19
2023-07-07T02:24:58.311Z,96527.75
2023-07-07T02:27:25.232Z,96526.59
2023-07-07T02:29:52.368Z,96526.97
2023-07-07T02:32:19.133Z,96524.25
2023-07-07T02:34:49.623Z,96519.50
2023-07-07T02:37:19.914Z,96517.09
2023-07-07T02:39:47.245Z,96523.84
2023-07-07T02:42:17.633Z,96520.63
2023-07-07T02:44:44.747Z,96525.34
2023-07-07T02:47:11.466Z,96517.41
2023-07-07T02:49:38.361Z,96529.66
2023-07-07T02:52:07.100Z,96521.72
2023-07-07T02:54:34.713Z,96527.25
2023-07-07T02:57:16.947Z,96524.13
2023-07-07T02:59:45.369Z,96521.72
2023-07-07T03:02:17.416Z,96535.56
2023-07-07T03:04:50.489Z,96536.59
2023-07-07T03:07:17.468Z,96540.88
2023-07-07T03:09:44.524Z,96542.84
2023-07-07T03:12:11.687Z,96546.34
2023-07-07T03:14:38.462Z,96544.38
2023-07-07T03:17:10.655Z,96546.03
2023-07-07T03:19:43.378Z,96544.38
2023-07-07T03:22:14.643Z,96537.22
2023-07-07T03:24:52.176Z,96551.81
2023-07-07T03:27:34.577Z,96553.72
2023-07-07T03:30:01.993Z,96556.88
2023-07-07T03:32:33.255Z,96560.06
2023-07-07T03:35:04.332Z,96558.50
2023-07-07T03:37:31.549Z,96568.47
2023-07-07T03:39:59.719Z,96569.63
2023-07-07T03:42:26.472Z,96563.41
2023-07-07T03:44:54.266Z,96565.78
2023-07-07T03:47:20.973Z,96566.22
2023-07-07T03:49:50.053Z,96568.25
2023-07-07T03:52:18.009Z,96566.41
2023-07-07T03:54:44.940Z,96572.47
2023-07-07T03:57:14.399Z,96575.78
2023-07-07T03:59:41.566Z,96576.34
2023-07-07T04:02:08.367Z,96576.53
2023-07-07T04:04:35.333Z,96573.84
2023-07-07T04:07:02.148Z,96572.28
2023-07-07T04:09:28.920Z,96580.66
2023-07-07T04:11:56.266Z,96574.78
2023-07-07T04:14:28.324Z,96574.44
2023-07-07T04:16:55.553Z,96578.03
2023-07-07T04:19:22.694Z,96579.25
2023-07-07T04:21:49.664Z,96586.88
2023-07-07T04:24:20.681Z,96577.38
2023-07-07T04:26:48.536Z,96584.94
2023-07-07T04:29:15.439Z,96590.97
2023-07-07T04:31:47.131Z,96585.88
2023-07-07T04:34:16.034Z,96591.09
2023-07-07T04:36:45.732Z,96591.97
2023-07-07T04:39:13.286Z,96592.84
2023-07-07T04:41:40.223Z,96592.50
2023-07-07T04:44:07.076Z,96595.34
2023-07-07T04:46:36.710Z,96596.56
2023-07-07T04:49:08.299Z,96596.19
2023-07-07T04:51:40.943Z,96601.78
2023-07-07T04:54:13.551Z,96601.06
2023-07-07T04:56:40.699Z,96605.06
2023-07-07T04:59:08.394Z,96608.28
2023-07-07T05:01:37.816Z,96609.13
2023-07-07T05:04:05.535Z,96609.94
2023-07-07T05:06:35.645Z,96611.56
2023-07-07T05:09:03.279Z,96615.16
2023-07-07T05:11:32.631Z,96621.19
2023-07-07T05:14:00.674Z,96620.44
2023-07-07T05:16:28.568Z,96616.84
2023-07-07T05:18:55.358Z,96615.69
2023-07-07T05:21:25.757Z,96622.13
2023-07-07T05:23:53.838Z,96622.13
2023-07-07T05:26:29.102Z,96632.06
2023-07-07T05:29:02.397Z,96624.97
2023-07-07T05:31:30.754Z,96626.59
2023-07-07T05:33:58.380Z,96634.56
2023-07-07T05:36:25.350Z,96624.63
2023-07-07T05:38:52.032Z,96634.16
2023-07-07T05:41:18.815Z,96629.03
2023-07-07T05:43:45.604Z,96629.41
2023-07-07T05:46:15.037Z,96637.78
2023-07-07T05:48:43.175Z,96629.81
2023-07-07T05:51:14.164Z,96641.75
2023-07-07T05:53:42.268Z,96643.34
2023-07-07T05:56:14.966Z,96640.53
2023-07-07T05:58:43.561Z,96654.44
2023-07-07T06:01:11.519Z,96660.38
2023-07-07T06:03:40.518Z,96668.34
2023-07-07T06:06:08.831Z,96658.00
2023-07-07T06:08:35.846Z,96667.56
2023-07-07T06:11:03.031Z,96674.38
2023-07-07T06:13:30.007Z,96678.34
2023-07-07T06:15:57.421Z,96679.91
2023-07-07T06:18:24.283Z,96678.31
2023-07-07T06:20:52.107Z,96674.34
2023-07-07T06:23:19.405Z,96672.28
2023-07-07T06:25:46.307Z,96679.88
2023-07-07T06:28:13.282Z,96683.84
2023-07-07T06:30:39.991Z,96678.25
2023-07-07T06:33:06.738Z,96677.84
2023-07-07T06:35:33.636Z,96684.25
2023-07-07T06:38:00.496Z,96681.09
2023-07-07T06:40:27.239Z,96681.50
2023-07-07T06:42:56.534Z,96674.69
2023-07-07T06:45:24.568Z,96692.22
2023-07-07T06:47:51.313Z,96688.66
2023-07-07T06:50:39.237Z,96681.09
2023-07-07T06:53:06.547Z,96676.69
2023-07-07T06:55:33.672Z,96680.28
2023-07-07T06:58:00.391Z,96681.44
2023-07-07T07:00:27.485Z,96685.44
2023-07-07T07:02:54.345Z,96677.06
2023-07-07T07:05:21.210Z,96682.63
2023-07-07T07:07:49.112Z,96691.38
2023-07-07T07:10:16.495Z,96684.91
2023-07-07T07:12:43.497Z,96696.03
2023-07-07T07:15:11.172Z,96688.78
2023-07-07T07:17:38.171Z,96681.78
2023-07-07T07:20:09.768Z,96685.25
2023-07-07T07:22:36.687Z,96682.47
2023-07-07T07:25:04.165Z,96678.38
2023-07-07T07:27:30.910Z,96680.28
2023-07-07T07:29:57.658Z,96686.59
2023-07-07T07:32:24.678Z,96677.78
2023-07-07T07:34:51.427Z,96683.31
2023-07-07T07:37:18.606Z,96676.94
2023-07-07T07:39:45.269Z,96677.78
2023-07-07T07:42:12.027Z,96678.13
2023-07-07T07:44:39.306Z,96679.28
2023-07-07T07:47:07.431Z,96683.50
2023-07-07T07:49:34.675Z,96683.03
2023-07-07T07:52:01.690Z,96683.75
2023-07-07T07:54:28.501Z,96687.63
2023-07-07T07:56:55.276Z,96685.00
2023-07-07T07:59:22.020Z,96685.66
2023-07-07T08:01:50.110Z,96683.47
2023-07-07T08:04:16.922Z,96693.50
2023-07-07T08:06:43.927Z,96686.28
2023-07-07T08:09:12.500Z,96688.97
2023-07-07T08:11:42.739Z,96690.81
2023-07-07T08:14:18.968Z,96682.66
2023-07-07T08:16:50.875Z,96691.19
2023-07-07T08:19:20.184Z,96690.88
2023-07-07T08:21:48.374Z,96688.81
2023-07-07T08:24:16.038Z,96691.56
2023-07-07T08:26:43.202Z,96687.91
2023-07-07T08:29:24.708Z,96692.19
2023-07-07T08:31:51.779Z,96692.44
2023-07-07T08:34:18.646Z,96695.63
2023-07-07T08:36:45.676Z,96683.16
2023-07-07T08:39:23.885Z,96693.78
2023-07-07T08:41:58.013Z,96697.69
2023-07-07T08:44:27.241Z,96695.69
2023-07-07T08:47:37.890Z,96687.25
2023-07-07T08:50:37.322Z,96700.88
2023-07-07T08:53:13.221Z,96689.28
2023-07-07T08:55:53.596Z,96688.06
2023-07-07T08:58:30.384Z,96682.66
2023-07-07T09:01:26.960Z,96692.19
2023-07-07T09:04:06.035Z,96689.00
2023-07-07T09:06:51.240Z,96697.19
2023-07-07T09:09:39.102Z,96690.25
2023-07-07T09:12:31.457Z,96685.66
2023-07-07T09:15:01.073Z,96693.41
2023-07-07T09:17:36.977Z,96691.47
2023-07-07T09:20:06.584Z,96687.66
2023-07-07T09:23:23.336Z,96693.13
2023-07-07T09:26:06.225Z,96691.47
2023-07-07T09:28:46.334Z,96687.03
2023-07-07T09:31:40.875Z,96684.75
2023-07-07T09:34:11.001Z,96684.63
2023-07-07T09:37:07.442Z,96682.09
2023-07-07T09:39:46.358Z,96681.59
2023-07-07T09:42:40.449Z,96677.84
2023-07-07T09:45:14.586Z,96684.75
2023-07-07T09:48:05.444Z,96683.31
2023-07-07T09:50:39.054Z,96684.81
2023-07-07T09:53:24.389Z,96683.06
2023-07-07T09:55:54.408Z,96686.44
2023-07-07T09:58:30.359Z,96687.56
2023-07-07T10:01:00.665Z,96680.28
2023-07-07T10:03:39.003Z,96678.19
2023-07-07T10:06:13.093Z,96683.47
2023-07-07T10:08:39.902Z,96680.22
2023-07-07T10:11:54.747Z,96679.53
2023-07-07T10:14:14.272Z,96684.38
2023-07-07T10:16:54.168Z,96679.94
2023-07-07T10:19:20.949Z,96689.44
2023-07-07T10:21:48.240Z,96686.81
2023-07-07T10:24:15.766Z,96679.91
2023-07-07T10:26:46.986Z,96683.41
2023-07-07T10:29:19.229Z,96681.19
2023-07-07T10:31:49.527Z,96682.31
2023-07-07T10:34:24.497Z,96675.78
2023-07-07T10:36:53.950Z,96673.34
2023-07-07T10:39:23.365Z,96680.72
2023-07-07T10:41:50.079Z,96675.88
2023-07-07T10:44:16.830Z,96676.91
2023-07-07T10:46:43.586Z,96676.13
2023-07-07T10:49:17.518Z,96679.06
2023-07-07T10:52:03.668Z,96670.59
2023-07-07T10:54:47.612Z,96671.06
2023-07-07T10:57:14.322Z,96674.25
2023-07-07T10:59:58.577Z,96677.53
2023-07-07T11:02:53.635Z,96665.13
2023-07-07T11:06:02.678Z,96668.34
2023-07-07T11:08:50.710Z,96664.16
2023-07-07T11:11:43.608Z,96668.09
2023-07-07T11:14:25.870Z,96661.56
2023-07-07T11:17:31.062Z,96671.16
2023-07-07T11:20:00.455Z,96658.53
2023-07-07T11:22:46.975Z,96656.03
2023-07-07T11:25:20.801Z,96657.63
2023-07-07T11:28:04.717Z,96658.53
2023-07-07T11:30:39.690Z,96652.88
2023-07-07T11:33:24.102Z,96658.28
2023-07-07T11:35:59.214Z,96651.38
2023-07-07T11:39:03.216Z,96652.66
2023-07-07T11:41:41.916Z,96655.47
2023-07-07T11:44:33.778Z,96655.66
2023-07-07T11:47:27.521Z,96651.13
2023-07-07T11:49:56.933Z,96648.72
2023-07-07T11:52:34.142Z,96654.59
2023-07-07T11:55:19.174Z,96641.44
2023-07-07T11:58:07.316Z,96643.69
2023-07-07T12:00:53.825Z,96650.81
2023-07-07T12:03:52.184Z,96643.91
2023-07-07T12:06:27.212Z,96649.88
2023-07-07T12:09:01.224Z,96651.84
2023-07-07T12:11:32.714Z,96645.41
2023-07-07T12:14:06.607Z,96644.84
2023-07-07T12:16:35.634Z,96642.25
2023-07-07T12:19:17.138Z,96639.63
2023-07-07T12:21:47.596Z,96639.00
2023-07-07T12:24:40.205Z,96636.75
2023-07-07T12:27:14.801Z,96634.59
2023-07-07T12:29:44.566Z,96628.00
2023-07-07T12:32:11.866Z,96623.81
2023-07-07T12:34:48.011Z,96630.47
2023-07-07T12:37:21.847Z,96621.72
2023-07-07T12:40:12.564Z,96626.19
2023-07-07T12:42:41.860Z,96620.00
2023-07-07T12:45:32.012Z,96624.50
2023-07-07T12:48:04.868Z,96611.66
2023-07-07T12:50:39.337Z,96618.56
2023-07-07T12:53:21.557Z,96625.94
2023-07-07T12:56:06.612Z,96620.28
2023-07-07T12:58:41.270Z,96625.13
2023-07-07T13:01:12.245Z,96618.63
2023-07-07T13:04:09.926Z,96617.22
2023-07-07T13:06:48.681Z,96612.94
2023-07-07T13:09:15.410Z,96612.78
2023-07-07T13:11:46.891Z,96612.25
2023-07-07T13:14:35.529Z,96620.06
2023-07-07T13:17:11.180Z,96611.78
2023-07-07T13:19:39.907Z,96606.94
2023-07-07T13:22:13.855Z,96601.81
2023-07-07T13:24:45.026Z,96607.94
2023-07-07T13:27:17.651Z,96602.47
2023-07-07T13:29:46.510Z,96610.16
2023-07-07T13:32:29.762Z,96601.59
2023-07-07T13:34:58.366Z,96606.19
2023-07-07T13:37:25.408Z,96604.47
2023-07-07T13:39:52.903Z,96596.78
2023-07-07T13:42:25.504Z,96596.34
2023-07-07T13:45:01.581Z,96610.88
2023-07-07T13:47:32.556Z,96592.16
2023-07-07T13:50:02.666Z,96591.59
2023-07-07T13:52:32.559Z,96600.50
2023-07-07T13:54:59.596Z,96591.41
2023-07-07T13:57:34.176Z,96595.78
2023-07-07T14:00:04.189Z,96590.84
2023-07-07T14:02:44.347Z,96587.38
2023-07-07T14:05:17.006Z,96589.66
2023-07-07T14:07:43.852Z,96590.88
2023-07-07T14:10:40.008Z,96585.53
2023-07-07T14:13:15.880Z,96583.59
2023-07-07T14:15:51.311Z,96579.91
2023-07-07T14:18:23.830Z,96586.88
2023-07-07T14:20:53.297Z,96583.53
2023-07-07T14:23:21.571Z,96587.16
2023-07-07T14:25:49.174Z,96578.66
2023-07-07T14:28:23.557Z,96573.84
2023-07-07T14:30:56.593Z,96561.16
2023-07-07T14:33:31.203Z,96561.69
2023-07-07T14:36:02.419Z,96557.69
2023-07-07T14:38:31.570Z,96559.66
2023-07-07T14:41:00.764Z,96554.50
2023-07-07T14:43:30.087Z,96557.97
2023-07-07T14:46:04.440Z,96556.09
2023-07-07T14:48:50.569Z,96552.94
2023-07-07T14:51:29.057Z,96549.66
2023-07-07T14:54:06.198Z,96555.31
2023-07-07T14:56:37.502Z,96537.69
2023-07-07T14:59:18.127Z,96544.25
2023-07-07T15:01:57.815Z,96543.78
2023-07-07T15:04:33.305Z,96540.69
2023-07-07T15:07:01.634Z,96535.44
2023-07-07T15:09:29.029Z,96535.94
2023-07-07T15:11:56.270Z,96530.16
2023-07-07T15:14:23.155Z,96533.75
2023-07-07T15:16:50.063Z,96528.47
2023-07-07T15:19:22.454Z,96525.31
2023-07-07T15:21:51.029Z,96526.78
2023-07-07T15:24:18.782Z,96537.00
2023-07-07T15:26:46.337Z,96528.97
2023-07-07T15:29:21.341Z,96531.63
2023-07-07T15:31:49.436Z,96521.47
2023-07-07T15:34:17.333Z,96527.28
2023-07-07T15:36:44.108Z,96521.00
2023-07-07T15:39:14.798Z,96524.84
2023-07-07T15:41:42.071Z,96519.50
2023-07-07T15:44:09.102Z,96523.28
2023-07-07T15:46:47.779Z,96514.78
2023-07-07T15:49:17.704Z,96513.41
2023-07-07T15:51:46.982Z,96513.88
2023-07-07T15:54:13.836Z,96516.06
2023-07-07T15:56:42.969Z,96514.75
2023-07-07T15:59:28.304Z,96513.38
2023-07-07T16:01:56.298Z,96510.69
2023-07-07T16:04:23.608Z,96514.97
2023-07-07T16:06:53.702Z,96508.19
2023-07-07T16:09:23.661Z,96514.88
2023-07-07T16:11:50.707Z,96512.81
2023-07-07T16:14:17.513Z,96508.88
2023-07-07T16:16:46.777Z,96502.69
2023-07-07T16:19:17.701Z,96503.63
2023-07-07T16:21:44.777Z,96510.19
2023-07-07T16:24:11.856Z,96504.63
2023-07-07T16:26:41.108Z,96507.78
2023-07-07T16:29:16.616Z,96501.94
2023-07-07T16:31:43.610Z,96505.22
2023-07-07T16:34:12.445Z,96505.34
2023-07-07T16:36:40.761Z,96503.09
2023-07-07T16:39:14.073Z,96506.38
2023-07-07T16:41:41.494Z,96500.59
2023-07-07T16:44:08.276Z,96503.38
2023-07-07T16:46:35.232Z,96506.66
2023-07-07T16:49:02.181Z,96507.06
2023-07-07T16:51:30.488Z,96504.81
2023-07-07T16:53:57.761Z,96503.16
2023-07-07T16:56:35.648Z,96496.84
2023-07-07T16:59:02.567Z,96500.31
2023-07-07T17:01:33.596Z,96501.13
2023-07-07T17:04:00.510Z,96497.03
2023-07-07T17:06:29.780Z,96501.25
2023-07-07T17:08:58.027Z,96488.63
2023-07-07T17:11:27.120Z,96498.81
2023-07-07T17:13:54.965Z,96499.47
2023-07-07T17:16:24.649Z,96491.38
2023-07-07T17:18:53.474Z,96496.38
2023-07-07T17:21:21.801Z,96496.94
2023-07-07T17:23:49.503Z,96494.00
2023-07-07T17:26:18.513Z,96501.13
2023-07-07T17:28:45.942Z,96504.78
2023-07-07T17:31:18.520Z,96505.56
2023-07-07T17:33:45.334Z,96497.44
2023-07-07T17:36:25.312Z,96502.31
2023-07-07T17:38:53.433Z,96497.13
2023-07-07T17:41:21.727Z,96494.41
2023-07-07T17:43:48.516Z,96500.16
2023-07-07T17:46:27.219Z,96497.13
2023-07-07T17:48:59.061Z,96496.88
2023-07-07T17:51:27.480Z,96497.13
2023-07-07T17:53:55.234Z,96497.91
2023-07-07T17:56:30.985Z,96495.53
2023-07-07T17:58:59.879Z,96497.00
2023-07-07T18:01:27.345Z,96494.41
2023-07-07T18:03:54.384Z,96498.59
2023-07-07T18:06:25.188Z,96498.03
2023-07-07T18:08:53.160Z,96508.63
2023-07-07T18:11:29.026Z,96508.03
2023-07-07T18:13:56.502Z,96503.28
2023-07-07T18:16:36.612Z,96509.50
2023-07-07T18:19:40.582Z,96511.19
2023-07-07T18:22:02.566Z,96508.88
2023-07-07T18:24:30.154Z,96507.53
2023-07-07T18:26:57.061Z,96507.72
2023-07-07T18:29:23.962Z,96508.25
2023-07-07T18:31:50.652Z,96513.31
2023-07-07T18:34:17.461Z,96512.28
2023-07-07T18:36:48.197Z,96508.53
2023-07-07T18:39:18.582Z,96518.09
2023-07-07T18:41:45.616Z,96519.50
2023-07-07T18:44:12.430Z,96519.34
2023-07-07T18:46:39.307Z,96515.47
2023-07-07T18:49:11.003Z,96510.91
2023-07-07T18:51:43.348Z,96514.88
2023-07-07T18:54:11.326Z,96513.03
2023-07-07T18:56:38.496Z,96518.06
2023-07-07T18:59:13.503Z,96522.38
2023-07-07T19:01:40.591Z,96520.19
2023-07-07T19:04:08.048Z,96521.09
2023-07-07T19:06:38.386Z,96526.53
2023-07-07T19:09:15.741Z,96526.50
2023-07-07T19:11:42.512Z,96527.50
2023-07-07T19:14:09.460Z,96529.31
2023-07-07T19:16:36.543Z,96528.59
2023-07-07T19:19:03.585Z,96527.88
2023-07-07T19:21:33.231Z,96529.63
2023-07-07T19:24:01.405Z,96529.00
2023-07-07T19:26:37.914Z,96524.44
2023-07-07T19:29:07.127Z,96531.44
2023-07-07T19:31:35.202Z,96531.56
2023-07-07T19:34:03.628Z,96529.41
2023-07-07T19:36:34.179Z,96524.56
2023-07-07T19:39:00.903Z,96533.50
2023-07-07T19:41:30.516Z,96535.31
2023-07-07T19:43:57.337Z,96532.28
2023-07-07T19:46:33.602Z,96527.28
2023-07-07T19:49:02.277Z,96536.78
2023-07-07T19:51:31.977Z,96519.47
2023-07-07T19:54:00.447Z,96530.41
2023-07-07T19:56:28.781Z,96532.53
2023-07-07T19:59:00.853Z,96532.25
2023-07-07T20:01:34.443Z,96529.72
2023-07-07T20:04:01.463Z,96529.91
2023-07-07T20:06:33.318Z,96529.34
2023-07-07T20:09:00.250Z,96529.78
2023-07-07T20:11:29.698Z,96523.88
2023-07-07T20:13:58.250Z,96524.00
2023-07-07T20:16:40.005Z,96538.88
2023-07-07T20:19:13.824Z,96527.84
2023-07-07T20:21:40.513Z,96521.63
2023-07-07T20:24:18.752Z,96524.69
2023-07-07T20:26:47.755Z,96512.75
2023-07-07T20:29:16.183Z,96523.25
2023-07-07T20:31:43.353Z,96519.66
2023-07-07T20:34:14.505Z,96523.28
2023-07-07T20:36:43.561Z,96528.16
2023-07-07T20:39:18.557Z,96530.72
2023-07-07T20:41:46.641Z,96520.47
2023-07-07T20:44:13.260Z,96527.34
2023-07-07T20:46:42.574Z,96532.22
2023-07-07T20:49:15.356Z,96525.88
2023-07-07T20:51:42.532Z,96525.13
2023-07-07T20:54:09.437Z,96528.75
2023-07-07T20:56:36.436Z,96527.16
2023-07-07T20:59:08.459Z,96531.16
2023-07-07T21:01:37.954Z,96517.69
2023-07-07T21:04:05.403Z,96530.47
2023-07-07T21:06:33.110Z,96526.53
2023-07-07T21:09:00.197Z,96530.47
2023-07-07T21:11:27.433Z,96524.94
2023-07-07T21:13:54.159Z,96528.16
2023-07-07T21:16:26.980Z,96534.50
2023-07-07T21:18:53.975Z,96538.50
2023-07-07T21:21:25.307Z,96542.50
2023-07-07T21:23:52.600Z,96543.31
2023-07-07T21:26:26.955Z,96538.16
2023-07-07T21:28:53.927Z,96549.75
2023-07-07T21:31:23.041Z,96546.97
2023-07-07T21:33:51.028Z,96546.59
2023-07-07T21:36:20.760Z,96541.41
2023-07-07T21:38:48.192Z,96544.97
2023-07-07T21:41:14.921Z,96547.41
2023-07-07T21:43:42.852Z,96548.59
2023-07-07T21:46:15.280Z,96542.63
2023-07-07T21:48:42.189Z,96540.66
2023-07-07T21:51:12.177Z,96542.25
2023-07-07T21:53:39.379Z,96537.47
2023-07-07T21:56:28.642Z,96541.84
2023-07-07T21:59:09.649Z,96542.25
2023-07-07T22:01:36.527Z,96536.31
2023-07-07T22:04:04.058Z,96528.34
2023-07-07T22:06:30.839Z,96524.38
2023-07-07T22:08:57.634Z,96530.72
2023-07-07T22:11:24.471Z,96531.13
2023-07-07T22:13:51.215Z,96528.75
2023-07-07T22:16:18.886Z,96524.38
2023-07-07T22:18:55.004Z,96531.53
2023-07-07T22:21:23.781Z,96526.34
2023-07-07T22:23:51.025Z,96529.53
2023-07-07T22:26:21.209Z,96533.91
2023-07-07T22:28:48.467Z,96543.47
2023-07-07T22:31:17.245Z,96535.50
2023-07-07T22:33:44.419Z,96539.88
2023-07-07T22:36:26.100Z,96545.84
2023-07-07T22:38:53.019Z,96539.47
2023-07-07T22:41:24.761Z,96539.09
2023-07-07T22:43:52.121Z,96534.66
2023-07-07T22:46:41.086Z,96542.22
2023-07-07T22:49:15.069Z,96531.06
2023-07-07T22:51:43.005Z,96525.50
2023-07-07T22:54:09.822Z,96528.66
2023-07-07T22:56:37.477Z,96533.03
2023-07-07T22:59:18.871Z,96527.47
2023-07-07T23:01:45.693Z,96531.44
2023-07-07T23:04:12.718Z,96516.34
2023-07-07T23:06:40.118Z,96507.97
2023-07-07T23:09:39.758Z,96514.31
2023-07-07T23:12:15.060Z,96516.25
2023-07-07T23:14:41.953Z,96515.44
2023-07-07T23:17:29.152Z,96515.44
2023-07-07T23:19:58.544Z,96501.13
2023-07-07T23:22:27.978Z,96509.81
2023-07-07T23:25:01.739Z,96505.41
2023-07-07T23:27:34.715Z,96504.59
2023-07-07T23:30:20.288Z,96503.03
2023-07-07T23:32:47.455Z,96500.28
2023-07-07T23:35:14.677Z,96501.06
2023-07-07T23:37:44.797Z,96496.16
2023-07-07T23:40:31.009Z,96487.75
2023-07-07T23:42:58.949Z,96485.69
2023-07-07T23:45:26.927Z,96486.03
2023-07-07T23:48:00.243Z,96494.34
2023-07-07T23:50:55.330Z,96490.38
2023-07-07T23:53:23.776Z,96501.13
2023-07-07T23:55:51.004Z,96509.34
2023-07-07T23:58:25.643Z,96501.00
